sensor_id;sensor_type;location;lat;lon;timestamp;P1;durP1;ratioP1;P2;durP2;ratioP2
1691;SDS011;843;52.054;8.552;2022-07-03T00:01:45;4.30;;;2.33;;
1691;SDS011;843;52.054;8.552;2022-07-03T00:04:12;3.97;;;3.07;;
1691;SDS011;843;52.054;8.552;2022-07-03T00:06:40;3.37;;;2.80;;
1691;SDS011;843;52.054;8.552;2022-07-03T00:09:07;3.40;;;2.63;;
1691;SDS011;843;52.054;8.552;2022-07-03T00:11:34;3.23;;;2.83;;
1691;SDS011;843;52.054;8.552;2022-07-03T00:14:00;2.83;;;2.33;;
1691;SDS011;843;52.054;8.552;2022-07-03T00:16:27;3.37;;;2.67;;
1691;SDS011;843;52.054;8.552;2022-07-03T00:18:54;3.90;;;2.90;;
1691;SDS011;843;52.054;8.552;2022-07-03T00:21:23;3.70;;;2.57;;
1691;SDS011;843;52.054;8.552;2022-07-03T00:23:54;4.53;;;2.63;;
1691;SDS011;843;52.054;8.552;2022-07-03T00:26:22;4.57;;;2.50;;
1691;SDS011;843;52.054;8.552;2022-07-03T00:28:51;3.43;;;2.93;;
1691;SDS011;843;52.054;8.552;2022-07-03T00:31:19;5.50;;;2.80;;
1691;SDS011;843;52.054;8.552;2022-07-03T00:33:46;3.23;;;2.93;;
1691;SDS011;843;52.054;8.552;2022-07-03T00:36:13;5.03;;;2.90;;
1691;SDS011;843;52.054;8.552;2022-07-03T00:38:40;3.57;;;3.20;;
1691;SDS011;843;52.054;8.552;2022-07-03T00:41:10;3.70;;;3.40;;
1691;SDS011;843;52.054;8.552;2022-07-03T00:43:50;4.80;;;3.20;;
1691;SDS011;843;52.054;8.552;2022-07-03T00:46:17;4.67;;;3.50;;
1691;SDS011;843;52.054;8.552;2022-07-03T00:48:47;5.40;;;3.40;;
1691;SDS011;843;52.054;8.552;2022-07-03T00:51:15;3.10;;;2.80;;
1691;SDS011;843;52.054;8.552;2022-07-03T00:53:44;2.80;;;2.60;;
1691;SDS011;843;52.054;8.552;2022-07-03T00:56:14;4.30;;;3.50;;
1691;SDS011;843;52.054;8.552;2022-07-03T00:58:42;3.73;;;2.90;;
1691;SDS011;843;52.054;8.552;2022-07-03T01:01:09;3.20;;;2.90;;
1691;SDS011;843;52.054;8.552;2022-07-03T01:03:38;5.10;;;3.83;;
1691;SDS011;843;52.054;8.552;2022-07-03T01:06:08;4.07;;;3.53;;
1691;SDS011;843;52.054;8.552;2022-07-03T01:08:41;3.93;;;3.10;;
1691;SDS011;843;52.054;8.552;2022-07-03T01:11:10;4.00;;;3.40;;
1691;SDS011;843;52.054;8.552;2022-07-03T01:13:52;4.83;;;4.07;;
1691;SDS011;843;52.054;8.552;2022-07-03T01:16:27;4.00;;;3.60;;
1691;SDS011;843;52.054;8.552;2022-07-03T01:18:58;3.70;;;3.40;;
1691;SDS011;843;52.054;8.552;2022-07-03T01:21:36;5.33;;;3.50;;
1691;SDS011;843;52.054;8.552;2022-07-03T01:24:17;4.70;;;3.47;;
1691;SDS011;843;52.054;8.552;2022-07-03T01:27:07;6.47;;;4.17;;
1691;SDS011;843;52.054;8.552;2022-07-03T01:29:35;4.00;;;3.70;;
1691;SDS011;843;52.054;8.552;2022-07-03T01:32:06;4.87;;;3.70;;
1691;SDS011;843;52.054;8.552;2022-07-03T01:34:34;4.43;;;4.03;;
1691;SDS011;843;52.054;8.552;2022-07-03T01:37:00;3.87;;;3.47;;
1691;SDS011;843;52.054;8.552;2022-07-03T01:39:29;7.37;;;4.13;;
1691;SDS011;843;52.054;8.552;2022-07-03T01:41:56;5.53;;;3.60;;
1691;SDS011;843;52.054;8.552;2022-07-03T01:44:27;4.17;;;3.63;;
1691;SDS011;843;52.054;8.552;2022-07-03T01:46:54;4.27;;;3.40;;
1691;SDS011;843;52.054;8.552;2022-07-03T01:49:23;5.13;;;3.70;;
1691;SDS011;843;52.054;8.552;2022-07-03T01:51:52;4.20;;;3.53;;
1691;SDS011;843;52.054;8.552;2022-07-03T01:54:20;4.60;;;3.53;;
1691;SDS011;843;52.054;8.552;2022-07-03T01:56:46;4.57;;;3.90;;
1691;SDS011;843;52.054;8.552;2022-07-03T01:59:13;6.87;;;4.23;;
1691;SDS011;843;52.054;8.552;2022-07-03T02:01:44;5.50;;;4.40;;
1691;SDS011;843;52.054;8.552;2022-07-03T02:04:16;3.50;;;3.20;;
1691;SDS011;843;52.054;8.552;2022-07-03T02:06:51;3.77;;;3.40;;
1691;SDS011;843;52.054;8.552;2022-07-03T02:09:24;4.33;;;3.93;;
1691;SDS011;843;52.054;8.552;2022-07-03T02:11:56;4.03;;;3.63;;
1691;SDS011;843;52.054;8.552;2022-07-03T02:14:24;5.33;;;4.23;;
1691;SDS011;843;52.054;8.552;2022-07-03T02:16:55;6.13;;;4.60;;
1691;SDS011;843;52.054;8.552;2022-07-03T02:19:27;3.90;;;3.30;;
1691;SDS011;843;52.054;8.552;2022-07-03T02:21:59;4.30;;;3.90;;
1691;SDS011;843;52.054;8.552;2022-07-03T02:24:27;4.23;;;3.80;;
1691;SDS011;843;52.054;8.552;2022-07-03T02:26:55;4.93;;;4.00;;
1691;SDS011;843;52.054;8.552;2022-07-03T02:29:26;5.40;;;3.80;;
1691;SDS011;843;52.054;8.552;2022-07-03T02:32:00;4.33;;;3.93;;
1691;SDS011;843;52.054;8.552;2022-07-03T02:34:29;4.10;;;3.70;;
1691;SDS011;843;52.054;8.552;2022-07-03T02:36:57;3.40;;;3.10;;
1691;SDS011;843;52.054;8.552;2022-07-03T02:39:32;5.30;;;3.40;;
1691;SDS011;843;52.054;8.552;2022-07-03T02:42:02;5.30;;;3.87;;
1691;SDS011;843;52.054;8.552;2022-07-03T02:44:31;4.47;;;3.80;;
1691;SDS011;843;52.054;8.552;2022-07-03T02:47:13;4.07;;;3.77;;
1691;SDS011;843;52.054;8.552;2022-07-03T02:49:42;6.30;;;3.00;;
1691;SDS011;843;52.054;8.552;2022-07-03T02:52:14;3.97;;;3.57;;
1691;SDS011;843;52.054;8.552;2022-07-03T02:54:47;6.70;;;3.30;;
1691;SDS011;843;52.054;8.552;2022-07-03T02:57:15;6.20;;;4.10;;
1691;SDS011;843;52.054;8.552;2022-07-03T02:59:45;3.70;;;3.27;;
1691;SDS011;843;52.054;8.552;2022-07-03T03:05:08;4.40;;;4.00;;
1691;SDS011;843;52.054;8.552;2022-07-03T03:07:41;4.00;;;3.70;;
1691;SDS011;843;52.054;8.552;2022-07-03T03:10:12;3.37;;;3.03;;
1691;SDS011;843;52.054;8.552;2022-07-03T03:12:41;5.03;;;4.07;;
1691;SDS011;843;52.054;8.552;2022-07-03T03:15:08;4.07;;;3.43;;
1691;SDS011;843;52.054;8.552;2022-07-03T03:17:41;4.27;;;3.80;;
1691;SDS011;843;52.054;8.552;2022-07-03T03:20:10;6.83;;;3.57;;
1691;SDS011;843;52.054;8.552;2022-07-03T03:22:46;4.27;;;3.90;;
1691;SDS011;843;52.054;8.552;2022-07-03T03:25:21;4.50;;;3.23;;
1691;SDS011;843;52.054;8.552;2022-07-03T03:27:48;5.03;;;3.47;;
1691;SDS011;843;52.054;8.552;2022-07-03T03:30:15;4.77;;;4.20;;
1691;SDS011;843;52.054;8.552;2022-07-03T03:32:43;5.97;;;3.80;;
1691;SDS011;843;52.054;8.552;2022-07-03T03:35:10;4.63;;;3.53;;
1691;SDS011;843;52.054;8.552;2022-07-03T03:37:36;5.50;;;3.27;;
1691;SDS011;843;52.054;8.552;2022-07-03T03:40:04;4.83;;;3.43;;
1691;SDS011;843;52.054;8.552;2022-07-03T03:42:31;3.43;;;3.00;;
1691;SDS011;843;52.054;8.552;2022-07-03T03:44:58;3.40;;;3.07;;
1691;SDS011;843;52.054;8.552;2022-07-03T03:47:24;3.23;;;2.60;;
1691;SDS011;843;52.054;8.552;2022-07-03T03:49:53;3.10;;;2.60;;
1691;SDS011;843;52.054;8.552;2022-07-03T03:52:20;5.90;;;2.80;;
1691;SDS011;843;52.054;8.552;2022-07-03T03:54:46;3.27;;;2.93;;
1691;SDS011;843;52.054;8.552;2022-07-03T03:57:17;2.70;;;2.37;;
1691;SDS011;843;52.054;8.552;2022-07-03T03:59:44;3.30;;;3.00;;
1691;SDS011;843;52.054;8.552;2022-07-03T04:02:11;3.03;;;2.70;;
1691;SDS011;843;52.054;8.552;2022-07-03T04:04:38;2.70;;;2.50;;
1691;SDS011;843;52.054;8.552;2022-07-03T04:07:06;2.50;;;2.30;;
1691;SDS011;843;52.054;8.552;2022-07-03T04:09:33;3.23;;;2.90;;
1691;SDS011;843;52.054;8.552;2022-07-03T04:12:00;3.40;;;3.07;;
1691;SDS011;843;52.054;8.552;2022-07-03T04:14:27;3.00;;;2.80;;
1691;SDS011;843;52.054;8.552;2022-07-03T04:16:53;4.43;;;2.67;;
1691;SDS011;843;52.054;8.552;2022-07-03T04:19:20;6.23;;;3.07;;
1691;SDS011;843;52.054;8.552;2022-07-03T04:21:47;3.37;;;2.60;;
1691;SDS011;843;52.054;8.552;2022-07-03T04:24:16;4.07;;;2.37;;
1691;SDS011;843;52.054;8.552;2022-07-03T04:26:42;4.30;;;3.00;;
1691;SDS011;843;52.054;8.552;2022-07-03T04:29:09;8.30;;;2.70;;
1691;SDS011;843;52.054;8.552;2022-07-03T04:31:36;2.93;;;2.60;;
1691;SDS011;843;52.054;8.552;2022-07-03T04:34:02;6.17;;;2.97;;
1691;SDS011;843;52.054;8.552;2022-07-03T04:36:29;4.37;;;2.63;;
1691;SDS011;843;52.054;8.552;2022-07-03T04:38:56;2.73;;;2.40;;
1691;SDS011;843;52.054;8.552;2022-07-03T04:41:24;5.23;;;2.90;;
1691;SDS011;843;52.054;8.552;2022-07-03T04:43:50;6.20;;;2.57;;
1691;SDS011;843;52.054;8.552;2022-07-03T04:46:17;2.90;;;2.60;;
1691;SDS011;843;52.054;8.552;2022-07-03T04:48:44;3.10;;;2.60;;
1691;SDS011;843;52.054;8.552;2022-07-03T04:51:10;3.00;;;2.70;;
1691;SDS011;843;52.054;8.552;2022-07-03T04:53:37;3.90;;;2.30;;
1691;SDS011;843;52.054;8.552;2022-07-03T04:56:04;2.53;;;2.20;;
1691;SDS011;843;52.054;8.552;2022-07-03T04:58:32;3.30;;;2.10;;
1691;SDS011;843;52.054;8.552;2022-07-03T05:00:59;3.27;;;2.27;;
1691;SDS011;843;52.054;8.552;2022-07-03T05:03:26;3.33;;;2.40;;
1691;SDS011;843;52.054;8.552;2022-07-03T05:05:53;3.00;;;2.47;;
1691;SDS011;843;52.054;8.552;2022-07-03T05:08:19;2.80;;;1.73;;
1691;SDS011;843;52.054;8.552;2022-07-03T05:10:46;2.90;;;2.07;;
1691;SDS011;843;52.054;8.552;2022-07-03T05:13:13;4.77;;;2.77;;
1691;SDS011;843;52.054;8.552;2022-07-03T05:15:41;3.77;;;2.20;;
1691;SDS011;843;52.054;8.552;2022-07-03T05:18:07;2.87;;;2.07;;
1691;SDS011;843;52.054;8.552;2022-07-03T05:20:34;2.43;;;2.10;;
1691;SDS011;843;52.054;8.552;2022-07-03T05:23:01;4.43;;;2.07;;
1691;SDS011;843;52.054;8.552;2022-07-03T05:25:29;2.70;;;2.30;;
1691;SDS011;843;52.054;8.552;2022-07-03T05:27:57;4.60;;;1.90;;
1691;SDS011;843;52.054;8.552;2022-07-03T05:30:24;3.70;;;2.30;;
1691;SDS011;843;52.054;8.552;2022-07-03T05:32:52;3.37;;;1.90;;
1691;SDS011;843;52.054;8.552;2022-07-03T05:35:19;2.63;;;1.90;;
1691;SDS011;843;52.054;8.552;2022-07-03T05:37:46;3.47;;;1.97;;
1691;SDS011;843;52.054;8.552;2022-07-03T05:40:13;4.97;;;2.03;;
1691;SDS011;843;52.054;8.552;2022-07-03T05:42:39;2.30;;;1.80;;
1691;SDS011;843;52.054;8.552;2022-07-03T05:45:06;2.47;;;1.90;;
1691;SDS011;843;52.054;8.552;2022-07-03T05:47:34;3.20;;;2.07;;
1691;SDS011;843;52.054;8.552;2022-07-03T05:50:02;2.93;;;2.43;;
1691;SDS011;843;52.054;8.552;2022-07-03T05:52:28;2.10;;;1.73;;
1691;SDS011;843;52.054;8.552;2022-07-03T05:54:55;3.57;;;2.30;;
1691;SDS011;843;52.054;8.552;2022-07-03T05:57:22;4.83;;;2.20;;
1691;SDS011;843;52.054;8.552;2022-07-03T05:59:49;2.83;;;1.93;;
1691;SDS011;843;52.054;8.552;2022-07-03T06:02:15;2.70;;;2.27;;
1691;SDS011;843;52.054;8.552;2022-07-03T06:04:42;2.60;;;2.00;;
1691;SDS011;843;52.054;8.552;2022-07-03T06:07:10;2.70;;;2.13;;
1691;SDS011;843;52.054;8.552;2022-07-03T06:09:37;3.30;;;2.17;;
1691;SDS011;843;52.054;8.552;2022-07-03T06:12:04;2.13;;;1.50;;
1691;SDS011;843;52.054;8.552;2022-07-03T06:14:31;2.00;;;1.80;;
1691;SDS011;843;52.054;8.552;2022-07-03T06:16:57;2.70;;;1.57;;
1691;SDS011;843;52.054;8.552;2022-07-03T06:19:24;5.27;;;1.40;;
1691;SDS011;843;52.054;8.552;2022-07-03T06:21:51;2.63;;;1.53;;
1691;SDS011;843;52.054;8.552;2022-07-03T06:24:19;2.50;;;1.50;;
1691;SDS011;843;52.054;8.552;2022-07-03T06:26:46;3.20;;;1.70;;
1691;SDS011;843;52.054;8.552;2022-07-03T06:29:12;4.00;;;1.77;;
1691;SDS011;843;52.054;8.552;2022-07-03T06:31:39;1.87;;;1.60;;
1691;SDS011;843;52.054;8.552;2022-07-03T06:34:06;4.17;;;1.80;;
1691;SDS011;843;52.054;8.552;2022-07-03T06:36:32;3.70;;;1.80;;
1691;SDS011;843;52.054;8.552;2022-07-03T06:38:59;4.20;;;2.27;;
1691;SDS011;843;52.054;8.552;2022-07-03T06:41:28;4.43;;;2.27;;
1691;SDS011;843;52.054;8.552;2022-07-03T06:43:55;2.30;;;1.70;;
1691;SDS011;843;52.054;8.552;2022-07-03T06:46:22;4.40;;;1.60;;
1691;SDS011;843;52.054;8.552;2022-07-03T06:48:49;3.50;;;1.77;;
1691;SDS011;843;52.054;8.552;2022-07-03T06:51:16;2.93;;;2.00;;
1691;SDS011;843;52.054;8.552;2022-07-03T06:53:42;3.80;;;1.83;;
1691;SDS011;843;52.054;8.552;2022-07-03T06:56:09;5.70;;;2.17;;
1691;SDS011;843;52.054;8.552;2022-07-03T06:58:37;2.00;;;1.40;;
1691;SDS011;843;52.054;8.552;2022-07-03T07:01:04;1.90;;;1.57;;
1691;SDS011;843;52.054;8.552;2022-07-03T07:03:30;1.40;;;1.20;;
1691;SDS011;843;52.054;8.552;2022-07-03T07:05:57;1.20;;;1.10;;
1691;SDS011;843;52.054;8.552;2022-07-03T07:08:24;2.53;;;1.53;;
1691;SDS011;843;52.054;8.552;2022-07-03T07:10:50;1.40;;;1.30;;
1691;SDS011;843;52.054;8.552;2022-07-03T07:13:17;2.90;;;1.40;;
1691;SDS011;843;52.054;8.552;2022-07-03T07:15:45;2.50;;;1.73;;
1691;SDS011;843;52.054;8.552;2022-07-03T07:18:12;3.50;;;1.40;;
1691;SDS011;843;52.054;8.552;2022-07-03T07:20:38;2.50;;;1.57;;
1691;SDS011;843;52.054;8.552;2022-07-03T07:23:05;1.67;;;1.37;;
1691;SDS011;843;52.054;8.552;2022-07-03T07:25:32;3.23;;;1.13;;
1691;SDS011;843;52.054;8.552;2022-07-03T07:27:59;2.07;;;1.17;;
1691;SDS011;843;52.054;8.552;2022-07-03T07:30:25;1.20;;;0.93;;
1691;SDS011;843;52.054;8.552;2022-07-03T07:32:53;4.37;;;1.27;;
1691;SDS011;843;52.054;8.552;2022-07-03T07:35:20;1.83;;;1.20;;
1691;SDS011;843;52.054;8.552;2022-07-03T07:37:47;1.73;;;0.93;;
1691;SDS011;843;52.054;8.552;2022-07-03T07:40:14;2.47;;;1.30;;
1691;SDS011;843;52.054;8.552;2022-07-03T07:42:40;2.27;;;1.40;;
1691;SDS011;843;52.054;8.552;2022-07-03T07:45:08;3.33;;;0.90;;
1691;SDS011;843;52.054;8.552;2022-07-03T07:47:35;2.27;;;1.10;;
1691;SDS011;843;52.054;8.552;2022-07-03T07:50:03;1.50;;;0.80;;
1691;SDS011;843;52.054;8.552;2022-07-03T07:52:31;2.37;;;1.03;;
1691;SDS011;843;52.054;8.552;2022-07-03T07:54:57;1.77;;;1.17;;
1691;SDS011;843;52.054;8.552;2022-07-03T07:57:24;2.30;;;1.13;;
1691;SDS011;843;52.054;8.552;2022-07-03T07:59:51;2.90;;;1.00;;
1691;SDS011;843;52.054;8.552;2022-07-03T08:02:18;4.00;;;1.10;;
1691;SDS011;843;52.054;8.552;2022-07-03T08:05:04;2.43;;;1.30;;
1691;SDS011;843;52.054;8.552;2022-07-03T08:07:49;2.50;;;0.80;;
1691;SDS011;843;52.054;8.552;2022-07-03T08:10:16;2.10;;;1.00;;
1691;SDS011;843;52.054;8.552;2022-07-03T08:12:43;3.77;;;1.03;;
1691;SDS011;843;52.054;8.552;2022-07-03T08:15:10;2.70;;;1.17;;
1691;SDS011;843;52.054;8.552;2022-07-03T08:17:37;3.10;;;1.10;;
1691;SDS011;843;52.054;8.552;2022-07-03T08:20:05;1.40;;;0.83;;
1691;SDS011;843;52.054;8.552;2022-07-03T08:22:34;7.80;;;1.20;;
1691;SDS011;843;52.054;8.552;2022-07-03T08:25:00;1.67;;;0.93;;
1691;SDS011;843;52.054;8.552;2022-07-03T08:27:27;2.07;;;1.10;;
1691;SDS011;843;52.054;8.552;2022-07-03T08:29:53;1.73;;;1.03;;
1691;SDS011;843;52.054;8.552;2022-07-03T08:32:20;3.07;;;0.70;;
1691;SDS011;843;52.054;8.552;2022-07-03T08:34:47;2.53;;;0.73;;
1691;SDS011;843;52.054;8.552;2022-07-03T08:37:15;1.40;;;0.70;;
1691;SDS011;843;52.054;8.552;2022-07-03T08:39:42;1.17;;;0.60;;
1691;SDS011;843;52.054;8.552;2022-07-03T08:42:09;1.73;;;0.60;;
1691;SDS011;843;52.054;8.552;2022-07-03T08:44:38;1.50;;;0.77;;
1691;SDS011;843;52.054;8.552;2022-07-03T08:47:06;2.37;;;0.50;;
1691;SDS011;843;52.054;8.552;2022-07-03T08:49:33;3.90;;;0.90;;
1691;SDS011;843;52.054;8.552;2022-07-03T08:52:01;1.57;;;0.70;;
1691;SDS011;843;52.054;8.552;2022-07-03T08:54:29;3.23;;;0.80;;
1691;SDS011;843;52.054;8.552;2022-07-03T08:56:56;2.40;;;0.50;;
1691;SDS011;843;52.054;8.552;2022-07-03T08:59:23;1.67;;;0.70;;
1691;SDS011;843;52.054;8.552;2022-07-03T09:01:50;2.20;;;0.90;;
1691;SDS011;843;52.054;8.552;2022-07-03T09:04:18;2.80;;;1.17;;
1691;SDS011;843;52.054;8.552;2022-07-03T09:06:45;1.53;;;0.77;;
1691;SDS011;843;52.054;8.552;2022-07-03T09:09:11;3.20;;;1.20;;
1691;SDS011;843;52.054;8.552;2022-07-03T09:11:39;4.10;;;1.10;;
1691;SDS011;843;52.054;8.552;2022-07-03T09:14:06;2.23;;;0.80;;
1691;SDS011;843;52.054;8.552;2022-07-03T09:16:36;2.00;;;1.27;;
1691;SDS011;843;52.054;8.552;2022-07-03T09:19:02;1.30;;;0.83;;
1691;SDS011;843;52.054;8.552;2022-07-03T09:21:38;1.70;;;1.17;;
1691;SDS011;843;52.054;8.552;2022-07-03T09:24:06;1.90;;;0.90;;
1691;SDS011;843;52.054;8.552;2022-07-03T09:26:35;1.73;;;0.77;;
1691;SDS011;843;52.054;8.552;2022-07-03T09:29:03;3.00;;;1.30;;
1691;SDS011;843;52.054;8.552;2022-07-03T09:31:31;1.80;;;0.90;;
1691;SDS011;843;52.054;8.552;2022-07-03T09:33:58;1.77;;;0.80;;
1691;SDS011;843;52.054;8.552;2022-07-03T09:36:41;3.70;;;1.10;;
1691;SDS011;843;52.054;8.552;2022-07-03T09:39:13;2.90;;;1.33;;
1691;SDS011;843;52.054;8.552;2022-07-03T09:41:51;1.60;;;0.80;;
1691;SDS011;843;52.054;8.552;2022-07-03T09:44:30;1.93;;;0.80;;
1691;SDS011;843;52.054;8.552;2022-07-03T09:47:11;3.47;;;0.80;;
1691;SDS011;843;52.054;8.552;2022-07-03T09:49:46;2.50;;;0.70;;
1691;SDS011;843;52.054;8.552;2022-07-03T09:52:26;1.93;;;0.80;;
1691;SDS011;843;52.054;8.552;2022-07-03T09:54:59;1.37;;;0.70;;
1691;SDS011;843;52.054;8.552;2022-07-03T09:57:28;2.17;;;0.70;;
1691;SDS011;843;52.054;8.552;2022-07-03T10:02:54;2.60;;;1.00;;
1691;SDS011;843;52.054;8.552;2022-07-03T10:05:24;3.00;;;0.83;;
1691;SDS011;843;52.054;8.552;2022-07-03T10:07:53;1.70;;;0.70;;
1691;SDS011;843;52.054;8.552;2022-07-03T10:10:21;1.57;;;1.00;;
1691;SDS011;843;52.054;8.552;2022-07-03T10:12:49;3.07;;;1.00;;
1691;SDS011;843;52.054;8.552;2022-07-03T10:15:16;2.67;;;1.00;;
1691;SDS011;843;52.054;8.552;2022-07-03T10:17:45;1.00;;;0.60;;
1691;SDS011;843;52.054;8.552;2022-07-03T10:20:13;4.10;;;0.70;;
1691;SDS011;843;52.054;8.552;2022-07-03T10:22:41;1.47;;;0.73;;
1691;SDS011;843;52.054;8.552;2022-07-03T10:25:08;1.77;;;0.83;;
1691;SDS011;843;52.054;8.552;2022-07-03T10:27:35;1.73;;;0.70;;
1691;SDS011;843;52.054;8.552;2022-07-03T10:30:02;2.10;;;0.70;;
1691;SDS011;843;52.054;8.552;2022-07-03T10:32:30;2.70;;;0.80;;
1691;SDS011;843;52.054;8.552;2022-07-03T10:35:00;1.40;;;0.80;;
1691;SDS011;843;52.054;8.552;2022-07-03T10:37:28;2.93;;;0.80;;
1691;SDS011;843;52.054;8.552;2022-07-03T10:40:01;1.13;;;0.50;;
1691;SDS011;843;52.054;8.552;2022-07-03T10:42:44;1.23;;;0.77;;
1691;SDS011;843;52.054;8.552;2022-07-03T10:45:30;2.47;;;0.80;;
1691;SDS011;843;52.054;8.552;2022-07-03T10:47:57;1.67;;;0.70;;
1691;SDS011;843;52.054;8.552;2022-07-03T10:50:25;2.27;;;0.70;;
1691;SDS011;843;52.054;8.552;2022-07-03T10:52:52;1.93;;;0.70;;
1691;SDS011;843;52.054;8.552;2022-07-03T10:55:18;2.80;;;0.80;;
1691;SDS011;843;52.054;8.552;2022-07-03T11:00:34;1.83;;;1.10;;
1691;SDS011;843;52.054;8.552;2022-07-03T11:03:25;2.10;;;0.80;;
1691;SDS011;843;52.054;8.552;2022-07-03T11:06:21;4.10;;;1.07;;
1691;SDS011;843;52.054;8.552;2022-07-03T11:09:01;1.63;;;0.90;;
1691;SDS011;843;52.054;8.552;2022-07-03T11:11:39;5.13;;;1.00;;
1691;SDS011;843;52.054;8.552;2022-07-03T11:14:23;1.70;;;0.90;;
1691;SDS011;843;52.054;8.552;2022-07-03T11:16:52;2.20;;;0.90;;
1691;SDS011;843;52.054;8.552;2022-07-03T11:19:44;1.10;;;0.60;;
1691;SDS011;843;52.054;8.552;2022-07-03T11:22:37;4.80;;;1.13;;
1691;SDS011;843;52.054;8.552;2022-07-03T11:25:10;4.23;;;1.00;;
1691;SDS011;843;52.054;8.552;2022-07-03T11:27:36;1.73;;;0.67;;
1691;SDS011;843;52.054;8.552;2022-07-03T11:30:03;4.00;;;0.80;;
1691;SDS011;843;52.054;8.552;2022-07-03T11:32:47;3.67;;;0.73;;
1691;SDS011;843;52.054;8.552;2022-07-03T11:38:12;2.10;;;0.80;;
1691;SDS011;843;52.054;8.552;2022-07-03T11:40:41;2.47;;;0.90;;
1691;SDS011;843;52.054;8.552;2022-07-03T11:43:09;2.43;;;0.87;;
1691;SDS011;843;52.054;8.552;2022-07-03T11:45:37;1.17;;;0.67;;
1691;SDS011;843;52.054;8.552;2022-07-03T11:48:05;2.87;;;1.07;;
1691;SDS011;843;52.054;8.552;2022-07-03T11:50:37;6.63;;;1.80;;
1691;SDS011;843;52.054;8.552;2022-07-03T11:55:58;2.30;;;1.13;;
1691;SDS011;843;52.054;8.552;2022-07-03T11:58:26;1.33;;;0.60;;
1691;SDS011;843;52.054;8.552;2022-07-03T12:01:06;1.60;;;0.90;;
1691;SDS011;843;52.054;8.552;2022-07-03T12:03:34;1.53;;;0.60;;
1691;SDS011;843;52.054;8.552;2022-07-03T12:06:00;2.30;;;1.20;;
1691;SDS011;843;52.054;8.552;2022-07-03T12:08:29;1.53;;;0.83;;
1691;SDS011;843;52.054;8.552;2022-07-03T12:11:01;1.20;;;0.80;;
1691;SDS011;843;52.054;8.552;2022-07-03T12:13:29;1.40;;;0.80;;
1691;SDS011;843;52.054;8.552;2022-07-03T12:16:04;5.43;;;1.07;;
1691;SDS011;843;52.054;8.552;2022-07-03T12:18:45;2.73;;;0.90;;
1691;SDS011;843;52.054;8.552;2022-07-03T12:21:14;1.20;;;0.87;;
1691;SDS011;843;52.054;8.552;2022-07-03T12:23:44;1.83;;;1.03;;
1691;SDS011;843;52.054;8.552;2022-07-03T12:26:11;1.63;;;0.97;;
1691;SDS011;843;52.054;8.552;2022-07-03T12:28:38;2.57;;;1.00;;
1691;SDS011;843;52.054;8.552;2022-07-03T12:31:05;1.20;;;0.80;;
1691;SDS011;843;52.054;8.552;2022-07-03T12:33:32;1.20;;;0.60;;
1691;SDS011;843;52.054;8.552;2022-07-03T12:36:04;1.10;;;0.70;;
1691;SDS011;843;52.054;8.552;2022-07-03T12:38:31;2.83;;;0.70;;
1691;SDS011;843;52.054;8.552;2022-07-03T12:41:04;2.10;;;0.90;;
1691;SDS011;843;52.054;8.552;2022-07-03T12:43:37;1.80;;;0.90;;
1691;SDS011;843;52.054;8.552;2022-07-03T12:46:14;2.20;;;1.00;;
1691;SDS011;843;52.054;8.552;2022-07-03T12:48:45;1.50;;;0.93;;
1691;SDS011;843;52.054;8.552;2022-07-03T12:51:13;2.27;;;1.30;;
1691;SDS011;843;52.054;8.552;2022-07-03T12:53:40;3.20;;;1.10;;
1691;SDS011;843;52.054;8.552;2022-07-03T12:56:09;1.40;;;1.00;;
1691;SDS011;843;52.054;8.552;2022-07-03T12:58:37;2.23;;;1.00;;
1691;SDS011;843;52.054;8.552;2022-07-03T13:01:26;2.10;;;1.00;;
1691;SDS011;843;52.054;8.552;2022-07-03T13:03:53;2.83;;;1.27;;
1691;SDS011;843;52.054;8.552;2022-07-03T13:06:20;2.27;;;1.20;;
1691;SDS011;843;52.054;8.552;2022-07-03T13:08:49;4.30;;;1.17;;
1691;SDS011;843;52.054;8.552;2022-07-03T13:11:25;2.20;;;1.10;;
1691;SDS011;843;52.054;8.552;2022-07-03T13:14:00;2.33;;;1.13;;
1691;SDS011;843;52.054;8.552;2022-07-03T13:16:29;2.30;;;1.10;;
1691;SDS011;843;52.054;8.552;2022-07-03T13:18:58;1.53;;;0.80;;
1691;SDS011;843;52.054;8.552;2022-07-03T13:21:26;2.87;;;1.30;;
1691;SDS011;843;52.054;8.552;2022-07-03T13:23:53;2.07;;;0.90;;
1691;SDS011;843;52.054;8.552;2022-07-03T13:26:20;2.27;;;1.00;;
1691;SDS011;843;52.054;8.552;2022-07-03T13:28:50;2.10;;;1.07;;
1691;SDS011;843;52.054;8.552;2022-07-03T13:31:17;3.90;;;1.73;;
1691;SDS011;843;52.054;8.552;2022-07-03T13:33:43;2.03;;;1.37;;
1691;SDS011;843;52.054;8.552;2022-07-03T13:36:10;3.70;;;2.40;;
1691;SDS011;843;52.054;8.552;2022-07-03T13:38:37;2.07;;;1.30;;
1691;SDS011;843;52.054;8.552;2022-07-03T13:41:03;1.80;;;1.60;;
1691;SDS011;843;52.054;8.552;2022-07-03T13:43:30;3.70;;;1.60;;
1691;SDS011;843;52.054;8.552;2022-07-03T13:45:58;2.53;;;1.23;;
1691;SDS011;843;52.054;8.552;2022-07-03T13:48:25;1.73;;;1.40;;
1691;SDS011;843;52.054;8.552;2022-07-03T13:50:52;3.13;;;2.07;;
1691;SDS011;843;52.054;8.552;2022-07-03T13:53:19;4.03;;;2.30;;
1691;SDS011;843;52.054;8.552;2022-07-03T13:55:46;2.30;;;1.80;;
1691;SDS011;843;52.054;8.552;2022-07-03T13:58:13;2.50;;;1.43;;
1691;SDS011;843;52.054;8.552;2022-07-03T14:00:41;1.90;;;1.50;;
1691;SDS011;843;52.054;8.552;2022-07-03T14:03:09;2.40;;;1.90;;
1691;SDS011;843;52.054;8.552;2022-07-03T14:05:36;2.97;;;2.40;;
1691;SDS011;843;52.054;8.552;2022-07-03T14:08:03;3.13;;;1.43;;
1691;SDS011;843;52.054;8.552;2022-07-03T14:10:30;3.30;;;2.00;;
1691;SDS011;843;52.054;8.552;2022-07-03T14:12:56;3.93;;;1.90;;
1691;SDS011;843;52.054;8.552;2022-07-03T14:15:23;6.10;;;2.07;;
1691;SDS011;843;52.054;8.552;2022-07-03T14:17:50;2.37;;;1.70;;
1691;SDS011;843;52.054;8.552;2022-07-03T14:20:18;3.33;;;1.70;;
1691;SDS011;843;52.054;8.552;2022-07-03T14:22:45;3.93;;;2.03;;
1691;SDS011;843;52.054;8.552;2022-07-03T14:25:11;2.87;;;1.53;;
1691;SDS011;843;52.054;8.552;2022-07-03T14:27:38;4.57;;;2.10;;
1691;SDS011;843;52.054;8.552;2022-07-03T14:30:22;3.10;;;1.83;;
1691;SDS011;843;52.054;8.552;2022-07-03T14:33:06;2.97;;;2.03;;
1691;SDS011;843;52.054;8.552;2022-07-03T14:35:34;5.03;;;2.27;;
1691;SDS011;843;52.054;8.552;2022-07-03T14:38:02;4.23;;;1.90;;
1691;SDS011;843;52.054;8.552;2022-07-03T14:40:28;2.10;;;1.57;;
1691;SDS011;843;52.054;8.552;2022-07-03T14:42:55;5.13;;;1.90;;
1691;SDS011;843;52.054;8.552;2022-07-03T14:45:23;2.30;;;1.83;;
1691;SDS011;843;52.054;8.552;2022-07-03T14:47:49;2.67;;;1.50;;
1691;SDS011;843;52.054;8.552;2022-07-03T14:50:16;5.07;;;2.00;;
1691;SDS011;843;52.054;8.552;2022-07-03T14:52:44;2.37;;;1.53;;
1691;SDS011;843;52.054;8.552;2022-07-03T14:55:11;3.70;;;1.73;;
1691;SDS011;843;52.054;8.552;2022-07-03T14:57:41;2.00;;;1.40;;
1691;SDS011;843;52.054;8.552;2022-07-03T15:00:12;3.30;;;1.70;;
1691;SDS011;843;52.054;8.552;2022-07-03T15:02:44;3.70;;;1.47;;
1691;SDS011;843;52.054;8.552;2022-07-03T15:05:12;2.80;;;1.43;;
1691;SDS011;843;52.054;8.552;2022-07-03T15:07:40;2.77;;;1.80;;
1691;SDS011;843;52.054;8.552;2022-07-03T15:10:09;2.80;;;1.70;;
1691;SDS011;843;52.054;8.552;2022-07-03T15:12:37;4.17;;;1.43;;
1691;SDS011;843;52.054;8.552;2022-07-03T15:15:09;3.60;;;2.00;;
1691;SDS011;843;52.054;8.552;2022-07-03T15:17:37;5.17;;;1.70;;
1691;SDS011;843;52.054;8.552;2022-07-03T15:20:04;4.50;;;1.63;;
1691;SDS011;843;52.054;8.552;2022-07-03T15:22:32;2.97;;;1.50;;
1691;SDS011;843;52.054;8.552;2022-07-03T15:25:00;6.50;;;1.70;;
1691;SDS011;843;52.054;8.552;2022-07-03T15:27:29;1.80;;;1.30;;
1691;SDS011;843;52.054;8.552;2022-07-03T15:29:55;4.33;;;1.43;;
1691;SDS011;843;52.054;8.552;2022-07-03T15:32:22;2.83;;;1.53;;
1691;SDS011;843;52.054;8.552;2022-07-03T15:34:49;3.60;;;1.37;;
1691;SDS011;843;52.054;8.552;2022-07-03T15:37:19;3.20;;;1.60;;
1691;SDS011;843;52.054;8.552;2022-07-03T15:39:55;2.17;;;1.50;;
1691;SDS011;843;52.054;8.552;2022-07-03T15:42:34;1.77;;;1.17;;
1691;SDS011;843;52.054;8.552;2022-07-03T15:45:06;2.40;;;1.30;;
1691;SDS011;843;52.054;8.552;2022-07-03T15:47:40;3.27;;;1.50;;
1691;SDS011;843;52.054;8.552;2022-07-03T15:50:14;1.60;;;1.30;;
1691;SDS011;843;52.054;8.552;2022-07-03T15:52:48;4.73;;;1.37;;
1691;SDS011;843;52.054;8.552;2022-07-03T15:55:15;4.00;;;1.20;;
1691;SDS011;843;52.054;8.552;2022-07-03T15:57:49;3.23;;;1.07;;